createdAt,value
2022-10-27T00:01:57.225Z,86.94
2022-10-27T00:04:59.735Z,87.02
2022-10-27T00:08:02.103Z,87.12
2022-10-27T00:11:06.596Z,87.19
2022-10-27T00:14:09.036Z,87.31
2022-10-27T00:17:11.557Z,87.39
2022-10-27T00:20:13.966Z,87.54
2022-10-27T00:23:16.461Z,87.77
2022-10-27T00:26:20.962Z,88.22
2022-10-27T00:29:23.559Z,88.53
2022-10-27T00:32:26.032Z,88.80
2022-10-27T00:35:28.694Z,88.92
2022-10-27T00:38:30.910Z,88.92
2022-10-27T00:41:36.648Z,88.88
2022-10-27T00:44:41.637Z,88.84
2022-10-27T00:47:44.197Z,88.77
2022-10-27T00:50:46.989Z,88.79
2022-10-27T00:53:50.010Z,88.65
2022-10-27T00:56:53.920Z,88.58
2022-10-27T00:59:58.186Z,88.52
2022-10-27T01:03:00.468Z,88.50
2022-10-27T01:06:03.306Z,88.53
2022-10-27T01:09:06.404Z,88.52
2022-10-27T01:12:09.507Z,88.58
2022-10-27T01:15:12.438Z,88.59
2022-10-27T01:18:27.206Z,88.55
2022-10-27T01:21:38.554Z,88.43
2022-10-27T01:25:10.465Z,88.34
2022-10-27T01:28:30.744Z,88.19
2022-10-27T01:31:41.744Z,87.96
2022-10-27T01:34:50.045Z,87.80
2022-10-27T01:38:10.408Z,87.71
2022-10-27T01:41:22.543Z,87.69
2022-10-27T01:44:31.845Z,87.70
2022-10-27T01:47:34.400Z,87.70
2022-10-27T01:50:56.845Z,87.69
2022-10-27T01:54:03.673Z,87.72
2022-10-27T01:57:27.430Z,87.77
2022-10-27T02:00:33.631Z,87.84
2022-10-27T02:03:43.263Z,87.89
2022-10-27T02:07:13.973Z,87.95
2022-10-27T02:10:22.990Z,88.01
2022-10-27T02:13:25.631Z,87.91
2022-10-27T02:16:31.748Z,87.86
2022-10-27T02:19:36.970Z,87.65
2022-10-27T02:22:41.903Z,87.60
2022-10-27T02:26:00.426Z,87.56
2022-10-27T02:29:09.754Z,87.55
2022-10-27T02:32:16.748Z,87.62
2022-10-27T02:35:20.146Z,87.59
2022-10-27T02:38:22.497Z,87.67
2022-10-27T02:41:25.119Z,87.72
2022-10-27T02:44:27.358Z,87.86
2022-10-27T02:47:29.949Z,87.95
2022-10-27T02:50:32.311Z,87.90
2022-10-27T02:53:34.911Z,87.94
2022-10-27T02:56:37.196Z,87.98
2022-10-27T02:59:39.689Z,88.09
2022-10-27T03:02:41.881Z,88.18
2022-10-27T03:05:45.599Z,88.36
2022-10-27T03:08:50.572Z,88.46
2022-10-27T03:11:53.177Z,88.71
2022-10-27T03:14:55.410Z,88.82
2022-10-27T03:17:57.994Z,88.86
2022-10-27T03:21:00.190Z,88.78
2022-10-27T03:24:02.813Z,88.63
2022-10-27T03:27:05.093Z,88.55
2022-10-27T03:30:15.820Z,88.48
2022-10-27T03:33:18.115Z,88.42
2022-10-27T03:36:20.670Z,88.49
2022-10-27T03:39:22.911Z,88.44
2022-10-27T03:42:25.793Z,88.44
2022-10-27T03:45:28.578Z,88.27
2022-10-27T03:48:31.117Z,88.13
2022-10-27T03:51:33.329Z,88.20
2022-10-27T03:54:35.866Z,88.24
2022-10-27T03:57:38.283Z,88.45
2022-10-27T04:00:41.588Z,88.60
2022-10-27T04:03:44.074Z,88.68
2022-10-27T04:06:46.554Z,88.73
2022-10-27T04:09:49.118Z,88.92
2022-10-27T04:12:53.722Z,89.03
2022-10-27T04:15:59.834Z,89.05
2022-10-27T04:19:02.041Z,89.03
2022-10-27T04:22:04.542Z,89.12
2022-10-27T04:25:07.506Z,89.12
2022-10-27T04:28:10.144Z,89.16
2022-10-27T04:31:12.350Z,89.21
2022-10-27T04:34:14.883Z,89.01
2022-10-27T04:37:17.142Z,88.99
2022-10-27T04:40:19.627Z,89.13
2022-10-27T04:43:21.863Z,89.16
2022-10-27T04:46:24.393Z,89.11
2022-10-27T04:49:26.600Z,89.03
2022-10-27T04:52:29.274Z,89.08
2022-10-27T04:55:33.131Z,89.11
2022-10-27T04:58:35.712Z,89.17
2022-10-27T05:01:39.498Z,89.21
2022-10-27T05:04:42.152Z,89.10
2022-10-27T05:07:51.567Z,88.94
2022-10-27T05:10:54.079Z,88.85
2022-10-27T05:13:56.289Z,88.78
2022-10-27T05:16:58.898Z,88.74
2022-10-27T05:20:01.160Z,88.64
2022-10-27T05:23:03.687Z,88.72
2022-10-27T05:26:09.547Z,88.76
2022-10-27T05:29:30.124Z,88.65
2022-10-27T05:32:34.848Z,88.56
2022-10-27T05:35:37.394Z,88.55
2022-10-27T05:38:39.627Z,88.54
2022-10-27T05:41:42.429Z,88.57
2022-10-27T05:44:44.808Z,88.39
2022-10-27T05:47:47.454Z,88.33
2022-10-27T05:50:54.027Z,88.16
2022-10-27T05:53:57.958Z,88.08
2022-10-27T05:57:00.319Z,87.98
2022-10-27T06:00:03.489Z,87.82
2022-10-27T06:03:19.966Z,87.78
2022-10-27T06:06:22.479Z,87.63
2022-10-27T06:09:24.711Z,87.57
2022-10-27T06:12:27.166Z,87.59
2022-10-27T06:15:30.409Z,87.43
2022-10-27T06:18:33.572Z,87.47
2022-10-27T06:21:35.799Z,87.41
2022-10-27T06:24:38.391Z,87.44
2022-10-27T06:27:40.788Z,87.41
2022-10-27T06:30:46.118Z,87.23
2022-10-27T06:33:48.456Z,87.32
2022-10-27T06:36:50.932Z,87.27
2022-10-27T06:39:57.337Z,87.10
2022-10-27T06:43:08.407Z,86.89
2022-10-27T06:46:10.922Z,86.74
2022-10-27T06:49:15.520Z,86.71
2022-10-27T06:52:19.959Z,86.45
2022-10-27T06:55:22.589Z,86.35
2022-10-27T06:58:24.907Z,86.42
2022-10-27T07:01:27.903Z,86.17
2022-10-27T07:04:30.673Z,86.00
2022-10-27T07:07:33.634Z,85.94
2022-10-27T07:10:35.963Z,85.84
2022-10-27T07:13:38.565Z,85.77
2022-10-27T07:16:40.942Z,85.68
2022-10-27T07:19:43.436Z,85.59
2022-10-27T07:22:45.686Z,85.48
2022-10-27T07:25:49.450Z,85.25
2022-10-27T07:28:51.789Z,84.96
2022-10-27T07:31:54.313Z,84.60
2022-10-27T07:34:59.323Z,84.32
2022-10-27T07:38:02.139Z,84.10
2022-10-27T07:41:04.712Z,83.84
2022-10-27T07:44:07.257Z,83.62
2022-10-27T07:47:09.497Z,83.51
2022-10-27T07:50:13.234Z,83.25
2022-10-27T07:53:16.327Z,83.13
2022-10-27T07:56:19.175Z,83.19
2022-10-27T07:59:21.489Z,83.07
2022-10-27T08:02:24.090Z,83.06
2022-10-27T08:05:27.130Z,83.06
2022-10-27T08:08:30.153Z,82.90
2022-10-27T08:11:32.742Z,82.80
2022-10-27T08:14:35.010Z,82.71
2022-10-27T08:17:39.232Z,82.59
2022-10-27T08:20:42.650Z,82.58
2022-10-27T08:23:45.318Z,82.55
2022-10-27T08:26:49.372Z,82.47
2022-10-27T08:29:51.986Z,82.34
2022-10-27T08:32:59.397Z,82.32
2022-10-27T08:36:02.688Z,82.14
2022-10-27T08:39:12.807Z,82.18
2022-10-27T08:42:47.338Z,82.07
2022-10-27T08:46:02.033Z,82.24
2022-10-27T08:52:55.190Z,81.57
2022-10-27T08:56:04.492Z,81.31
2022-10-27T08:59:14.501Z,81.30
2022-10-27T09:02:50.677Z,81.31
2022-10-27T09:06:17.832Z,81.10
2022-10-27T09:09:50.763Z,81.16
2022-10-27T09:13:07.943Z,80.51
2022-10-27T09:16:16.752Z,80.54
2022-10-27T09:19:34.389Z,80.41
2022-10-27T09:22:41.663Z,80.38
2022-10-27T09:25:47.708Z,80.21
2022-10-27T09:28:52.290Z,80.09
2022-10-27T09:32:06.701Z,80.08
2022-10-27T09:35:16.498Z,80.16
2022-10-27T09:38:25.857Z,80.20
2022-10-27T09:41:28.482Z,80.18
2022-10-27T09:44:30.739Z,80.13
2022-10-27T09:47:39.831Z,80.22
2022-10-27T09:51:12.870Z,80.17
2022-10-27T09:54:32.687Z,80.21
2022-10-27T09:57:38.775Z,80.12
2022-10-27T10:00:42.670Z,79.98
2022-10-27T10:03:55.735Z,79.85
2022-10-27T10:07:01.449Z,79.78
2022-10-27T10:10:27.208Z,79.88
2022-10-27T10:13:34.266Z,79.99
2022-10-27T10:16:36.863Z,79.92
2022-10-27T10:19:46.465Z,79.85
2022-10-27T10:22:51.199Z,79.78
2022-10-27T10:25:58.217Z,79.72
2022-10-27T10:29:18.041Z,79.57
2022-10-27T10:32:29.924Z,79.42
2022-10-27T10:35:42.746Z,79.09
2022-10-27T10:38:50.848Z,79.20
2022-10-27T10:42:15.853Z,79.08
2022-10-27T10:45:23.486Z,79.02
2022-10-27T10:48:47.207Z,78.98
2022-10-27T10:51:58.153Z,78.79
2022-10-27T10:55:16.676Z,78.67
2022-10-27T10:58:21.720Z,78.39
2022-10-27T11:01:39.914Z,78.14
2022-10-27T11:04:44.563Z,78.26
2022-10-27T11:07:49.094Z,78.37
2022-10-27T11:10:55.835Z,78.28
2022-10-27T11:14:07.824Z,78.03
2022-10-27T11:17:10.852Z,77.86
2022-10-27T11:20:21.958Z,77.89
2022-10-27T11:23:49.352Z,77.39
2022-10-27T11:27:13.172Z,77.24
2022-10-27T11:30:24.743Z,76.88
2022-10-27T11:33:56.424Z,77.07
2022-10-27T11:37:29.723Z,77.13
2022-10-27T11:40:51.261Z,76.96
2022-10-27T11:44:08.829Z,77.03
2022-10-27T11:47:20.929Z,77.17
2022-10-27T11:50:46.204Z,77.08
2022-10-27T11:53:51.820Z,77.02
2022-10-27T11:57:38.659Z,76.98
2022-10-27T12:01:00.472Z,76.84
2022-10-27T12:04:32.147Z,76.78
2022-10-27T12:08:07.913Z,76.58
2022-10-27T12:11:20.658Z,75.99
2022-10-27T12:14:53.619Z,75.68
2022-10-27T12:18:13.072Z,75.34
2022-10-27T12:21:23.478Z,75.12
2022-10-27T12:24:35.548Z,74.62
2022-10-27T12:27:41.854Z,74.34
2022-10-27T12:30:47.965Z,73.95
2022-10-27T12:34:03.280Z,73.39
2022-10-27T12:37:16.427Z,73.32
2022-10-27T12:40:38.575Z,73.36
2022-10-27T12:44:20.748Z,73.19
2022-10-27T12:47:36.019Z,73.57
2022-10-27T12:51:17.339Z,73.42
2022-10-27T12:54:44.142Z,73.25
2022-10-27T12:57:53.159Z,73.00
2022-10-27T13:01:02.582Z,73.37
2022-10-27T13:04:33.305Z,73.40
2022-10-27T13:07:57.296Z,73.32
2022-10-27T13:11:25.094Z,73.62
2022-10-27T13:15:01.412Z,73.80
2022-10-27T13:18:37.258Z,73.89
2022-10-27T13:21:52.073Z,74.02
2022-10-27T13:25:16.251Z,74.12
2022-10-27T13:28:42.039Z,74.25
2022-10-27T13:31:44.684Z,74.46
2022-10-27T13:35:02.470Z,74.36
2022-10-27T13:38:21.314Z,74.61
2022-10-27T13:42:01.115Z,74.68
2022-10-27T13:45:30.026Z,74.83
2022-10-27T13:48:34.239Z,74.86
2022-10-27T13:51:49.049Z,74.93
2022-10-27T13:55:03.997Z,75.30
2022-10-27T13:58:18.694Z,75.53
2022-10-27T14:01:27.243Z,75.50
2022-10-27T14:04:46.970Z,75.81
2022-10-27T14:07:49.823Z,76.12
2022-10-27T14:10:54.938Z,76.36
2022-10-27T14:14:05.458Z,76.58
2022-10-27T14:17:21.117Z,76.65
2022-10-27T14:20:32.055Z,76.79
2022-10-27T14:23:34.740Z,77.17
2022-10-27T14:26:37.991Z,77.21
2022-10-27T14:29:40.612Z,77.31
2022-10-27T14:32:42.944Z,77.61
2022-10-27T14:35:45.637Z,77.78
2022-10-27T14:39:04.882Z,77.88
2022-10-27T14:42:19.672Z,78.09
2022-10-27T14:45:23.912Z,78.24
2022-10-27T14:48:30.431Z,78.44
2022-10-27T14:51:38.162Z,78.57
2022-10-27T14:54:47.308Z,78.89
2022-10-27T14:57:51.556Z,78.98
2022-10-27T15:00:54.767Z,79.06
2022-10-27T15:03:58.497Z,79.27
2022-10-27T15:07:03.032Z,79.36
2022-10-27T15:10:06.100Z,79.38
2022-10-27T15:13:18.208Z,79.59
2022-10-27T15:16:24.608Z,79.74
2022-10-27T15:19:27.615Z,79.89
2022-10-27T15:22:30.149Z,80.07
2022-10-27T15:25:33.176Z,80.24
2022-10-27T15:28:36.964Z,80.36
2022-10-27T15:31:43.299Z,80.38
2022-10-27T15:34:45.646Z,80.42
2022-10-27T15:37:48.159Z,80.45
2022-10-27T15:40:52.000Z,80.58
2022-10-27T15:44:03.629Z,80.68
2022-10-27T15:47:42.204Z,80.72
2022-10-27T15:51:00.407Z,80.69
2022-10-27T15:54:02.881Z,80.71
2022-10-27T15:57:33.509Z,80.74
2022-10-27T16:00:35.779Z,80.76
2022-10-27T16:03:56.269Z,80.70
2022-10-27T16:07:29.385Z,80.75
2022-10-27T16:10:33.555Z,80.87
2022-10-27T16:13:35.974Z,80.81
2022-10-27T16:16:38.702Z,80.77
2022-10-27T16:19:42.171Z,80.83
2022-10-27T16:22:45.924Z,80.81
2022-10-27T16:25:49.175Z,80.90
2022-10-27T16:28:55.828Z,81.10
2022-10-27T16:32:02.517Z,81.29
2022-10-27T16:35:05.414Z,81.52
2022-10-27T16:38:10.287Z,81.67
2022-10-27T16:41:27.426Z,81.80
2022-10-27T16:44:29.735Z,81.88
2022-10-27T16:47:32.327Z,82.14
2022-10-27T16:50:37.285Z,82.23
2022-10-27T16:53:55.832Z,82.31
2022-10-27T16:56:58.358Z,82.30
2022-10-27T17:00:00.640Z,82.42
2022-10-27T17:03:03.228Z,82.39
2022-10-27T17:06:06.052Z,82.45
2022-10-27T17:09:09.487Z,82.44
2022-10-27T17:12:11.715Z,82.48
2022-10-27T17:15:14.333Z,82.47
2022-10-27T17:18:16.585Z,82.58
2022-10-27T17:21:19.166Z,82.58
2022-10-27T17:24:21.478Z,82.62
2022-10-27T17:27:23.988Z,82.60
2022-10-27T17:30:26.398Z,82.62
2022-10-27T17:33:29.241Z,82.71
2022-10-27T17:36:31.544Z,82.63
2022-10-27T17:39:34.132Z,82.70
2022-10-27T17:42:36.503Z,82.74
2022-10-27T17:45:39.194Z,82.76
2022-10-27T17:48:44.955Z,82.80
2022-10-27T17:51:50.332Z,82.79
2022-10-27T17:54:52.845Z,82.72
2022-10-27T17:57:55.533Z,82.76
2022-10-27T18:01:17.567Z,82.71
2022-10-27T18:04:21.254Z,82.82
2022-10-27T18:07:24.540Z,82.80
2022-10-27T18:10:27.088Z,82.77
2022-10-27T18:13:34.712Z,82.64
2022-10-27T18:16:39.723Z,82.76
2022-10-27T18:19:41.986Z,82.71
2022-10-27T18:22:44.713Z,82.73
2022-10-27T18:25:47.034Z,82.71
2022-10-27T18:28:50.079Z,82.74
2022-10-27T18:31:52.323Z,82.78
2022-10-27T18:34:54.996Z,82.72
2022-10-27T18:37:58.909Z,82.68
2022-10-27T18:41:05.065Z,82.72
2022-10-27T18:44:08.404Z,82.62
2022-10-27T18:47:10.949Z,82.61
2022-10-27T18:50:13.342Z,82.62
2022-10-27T18:53:16.258Z,82.68
2022-10-27T18:56:18.652Z,82.64
2022-10-27T18:59:21.209Z,82.63
2022-10-27T19:02:23.604Z,82.69
2022-10-27T19:05:26.246Z,82.65
2022-10-27T19:08:29.302Z,82.55
2022-10-27T19:11:35.220Z,82.77
2022-10-27T19:14:37.684Z,82.66
2022-10-27T19:17:41.108Z,82.44
2022-10-27T19:20:46.418Z,82.31
2022-10-27T19:23:58.130Z,82.27
2022-10-27T19:27:03.475Z,82.12
2022-10-27T19:30:11.189Z,82.46
2022-10-27T19:33:19.439Z,82.89
2022-10-27T19:36:29.894Z,82.61
2022-10-27T19:39:44.508Z,82.57
2022-10-27T19:42:47.064Z,82.46
2022-10-27T19:45:50.431Z,82.28
2022-10-27T19:48:55.079Z,82.02
2022-10-27T19:51:57.755Z,81.73
2022-10-27T19:55:00.321Z,81.60
2022-10-27T19:58:03.360Z,81.62
2022-10-27T20:01:16.876Z,81.63
2022-10-27T20:04:20.551Z,81.68
2022-10-27T20:07:22.783Z,81.86
2022-10-27T20:10:25.416Z,81.81
2022-10-27T20:13:27.649Z,81.90
2022-10-27T20:16:33.733Z,81.85
2022-10-27T20:19:38.238Z,81.89
2022-10-27T20:22:41.001Z,81.89
2022-10-27T20:25:43.273Z,81.91
2022-10-27T20:28:45.851Z,81.89
2022-10-27T20:31:48.851Z,81.99
2022-10-27T20:34:51.952Z,82.02
2022-10-27T20:37:54.211Z,82.08
2022-10-27T20:40:56.788Z,82.04
2022-10-27T20:44:00.643Z,82.01
2022-10-27T20:47:03.222Z,82.05
2022-10-27T20:50:06.067Z,82.00
2022-10-27T20:53:08.618Z,82.04
2022-10-27T20:56:16.205Z,82.12
2022-10-27T20:59:21.278Z,82.34
2022-10-27T21:02:26.390Z,82.26
2022-10-27T21:05:29.023Z,82.17
2022-10-27T21:08:31.332Z,82.14
2022-10-27T21:11:34.760Z,82.18
2022-10-27T21:14:37.018Z,82.28
2022-10-27T21:17:39.601Z,82.26
2022-10-27T21:20:41.885Z,82.29
2022-10-27T21:23:44.369Z,82.50
2022-10-27T21:26:46.699Z,82.55
2022-10-27T21:29:49.202Z,82.57
2022-10-27T21:32:53.505Z,82.60
2022-10-27T21:35:56.169Z,82.65
2022-10-27T21:38:58.471Z,82.72
2022-10-27T21:42:00.976Z,82.69
2022-10-27T21:45:03.627Z,82.71
2022-10-27T21:48:06.580Z,82.71
2022-10-27T21:51:11.707Z,82.63
2022-10-27T21:54:14.299Z,82.71
2022-10-27T21:57:16.600Z,82.69
2022-10-27T22:00:19.234Z,82.71
2022-10-27T22:03:21.835Z,82.75
2022-10-27T22:06:33.075Z,82.79
2022-10-27T22:09:35.587Z,82.88
2022-10-27T22:12:37.900Z,82.85
2022-10-27T22:15:40.408Z,82.79
2022-10-27T22:18:46.763Z,82.83
2022-10-27T22:21:50.540Z,82.77
2022-10-27T22:24:53.393Z,82.83
2022-10-27T22:27:55.919Z,82.84
2022-10-27T22:30:58.225Z,82.87
2022-10-27T22:34:01.993Z,82.83
2022-10-27T22:37:04.250Z,82.76
2022-10-27T22:40:07.731Z,82.80
2022-10-27T22:43:10.037Z,82.84
2022-10-27T22:46:21.684Z,82.86
2022-10-27T22:49:23.986Z,82.90
2022-10-27T22:52:26.436Z,82.90
2022-10-27T22:55:28.697Z,82.90
2022-10-27T22:58:31.372Z,82.96
2022-10-27T23:01:37.318Z,82.92
2022-10-27T23:04:39.876Z,82.91
2022-10-27T23:07:42.102Z,82.84
2022-10-27T23:10:44.681Z,82.92
2022-10-27T23:13:46.982Z,82.92
2022-10-27T23:16:49.444Z,82.97
2022-10-27T23:19:52.230Z,82.98
2022-10-27T23:22:55.039Z,82.94
2022-10-27T23:25:58.308Z,82.83
2022-10-27T23:29:03.171Z,82.98
2022-10-27T23:32:05.897Z,83.07
2022-10-27T23:35:08.738Z,83.22
2022-10-27T23:38:10.983Z,83.24
2022-10-27T23:41:13.706Z,83.27
2022-10-27T23:44:15.956Z,83.25
2022-10-27T23:47:18.439Z,83.34
2022-10-27T23:50:20.886Z,83.35
2022-10-27T23:53:23.584Z,83.27
2022-10-27T23:56:26.529Z,83.24
2022-10-27T23:59:29.089Z,83.24
